createdAt,value
2023-03-05T00:01:56.069Z,5.53
2023-03-05T00:04:23.612Z,6.05
2023-03-05T00:06:50.761Z,5.78
2023-03-05T00:09:17.592Z,5.80
2023-03-05T00:11:44.389Z,7.00
2023-03-05T00:14:12.060Z,7.60
2023-03-05T00:16:38.960Z,6.43
2023-03-05T00:19:06.687Z,5.65
2023-03-05T00:21:36.854Z,6.93
2023-03-05T00:24:06.991Z,6.57
2023-03-05T00:26:36.837Z,5.95
2023-03-05T00:29:04.677Z,5.47
2023-03-05T00:31:34.135Z,7.38
2023-03-05T00:34:04.359Z,6.20
2023-03-05T00:36:31.689Z,5.28
2023-03-05T00:38:58.474Z,5.80
2023-03-05T00:41:25.124Z,7.32
2023-03-05T00:43:51.649Z,5.50
2023-03-05T00:46:18.583Z,4.68
2023-03-05T00:48:45.248Z,6.22
2023-03-05T00:51:12.062Z,5.95
2023-03-05T00:53:38.799Z,6.13
2023-03-05T00:56:06.100Z,6.55
2023-03-05T00:58:33.041Z,5.50
2023-03-05T01:01:00.764Z,6.35
2023-03-05T01:03:27.534Z,4.88
2023-03-05T01:05:55.728Z,6.40
2023-03-05T01:08:22.554Z,5.93
2023-03-05T01:10:49.373Z,6.03
2023-03-05T01:13:15.964Z,6.97
2023-03-05T01:15:42.905Z,6.53
2023-03-05T01:18:09.780Z,6.85
2023-03-05T01:20:36.755Z,5.53
2023-03-05T01:23:03.411Z,6.30
2023-03-05T01:25:29.946Z,6.82
2023-03-05T01:27:56.912Z,6.80
2023-03-05T01:30:24.186Z,7.13
2023-03-05T01:32:50.778Z,6.90
2023-03-05T01:35:20.413Z,5.63
2023-03-05T01:37:47.689Z,5.68
2023-03-05T01:40:18.629Z,5.30
2023-03-05T01:42:48.153Z,6.43
2023-03-05T01:45:17.899Z,6.18
2023-03-05T01:47:44.738Z,6.85
2023-03-05T01:50:21.496Z,5.43
2023-03-05T01:52:57.489Z,5.93
2023-03-05T01:55:26.370Z,5.57
2023-03-05T01:57:58.268Z,4.82
2023-03-05T02:00:32.123Z,5.72
2023-03-05T02:03:03.645Z,5.18
2023-03-05T02:05:35.651Z,7.28
2023-03-05T02:08:06.575Z,7.65
2023-03-05T02:10:45.059Z,5.45
2023-03-05T02:13:15.097Z,5.88
2023-03-05T02:15:42.391Z,5.82
2023-03-05T02:18:10.138Z,4.53
2023-03-05T02:21:06.803Z,5.57
2023-03-05T02:23:36.536Z,6.10
2023-03-05T02:26:09.665Z,5.00
2023-03-05T02:29:08.081Z,6.03
2023-03-05T02:31:36.213Z,5.68
2023-03-05T02:34:02.864Z,5.60
2023-03-05T02:36:29.707Z,5.32
2023-03-05T02:38:57.100Z,5.88
2023-03-05T02:41:24.676Z,4.68
2023-03-05T02:43:51.824Z,3.58
2023-03-05T02:46:18.628Z,5.38
2023-03-05T02:48:45.275Z,4.70
2023-03-05T02:51:13.747Z,5.20
2023-03-05T02:53:42.644Z,6.03
2023-03-05T02:56:10.048Z,6.07
2023-03-05T02:58:36.760Z,5.78
2023-03-05T03:01:03.610Z,5.00
2023-03-05T03:03:30.420Z,5.10
2023-03-05T03:05:57.097Z,4.93
2023-03-05T03:08:23.758Z,5.03
2023-03-05T03:10:50.453Z,6.28
2023-03-05T03:13:17.113Z,4.60
2023-03-05T03:15:44.120Z,6.15
2023-03-05T03:18:10.829Z,3.80
2023-03-05T03:20:39.208Z,4.75
2023-03-05T03:23:06.797Z,5.38
2023-03-05T03:25:33.622Z,5.78
2023-03-05T03:28:00.177Z,4.43
2023-03-05T03:30:26.991Z,4.25
2023-03-05T03:32:53.544Z,4.45
2023-03-05T03:35:20.558Z,5.65
2023-03-05T03:37:47.719Z,5.65
2023-03-05T03:40:14.462Z,6.38
2023-03-05T03:42:41.176Z,5.40
2023-03-05T03:45:08.594Z,4.05
2023-03-05T03:47:35.396Z,5.20
2023-03-05T03:50:02.182Z,4.57
2023-03-05T03:52:28.848Z,5.68
2023-03-05T03:55:01.324Z,5.53
2023-03-05T03:57:29.732Z,5.97
2023-03-05T03:59:56.456Z,4.35
2023-03-05T04:02:23.425Z,4.65
2023-03-05T04:04:50.284Z,3.78
2023-03-05T04:07:17.292Z,4.70
2023-03-05T04:09:44.003Z,6.35
2023-03-05T04:12:11.093Z,5.05
2023-03-05T04:14:37.695Z,4.25
2023-03-05T04:17:04.358Z,4.55
2023-03-05T04:19:31.063Z,4.63
2023-03-05T04:22:00.490Z,4.05
2023-03-05T04:24:27.095Z,3.83
2023-03-05T04:26:53.769Z,4.93
2023-03-05T04:29:20.868Z,4.57
2023-03-05T04:31:47.624Z,4.68
2023-03-05T04:34:14.199Z,4.03
2023-03-05T04:36:41.005Z,5.07
2023-03-05T04:39:07.686Z,3.70
2023-03-05T04:41:34.306Z,5.30
2023-03-05T04:44:00.909Z,5.13
2023-03-05T04:46:27.628Z,6.55
2023-03-05T04:48:55.066Z,4.03
2023-03-05T04:51:21.645Z,4.05
2023-03-05T04:53:48.401Z,3.72
2023-03-05T04:56:15.123Z,4.03
2023-03-05T04:58:41.746Z,4.07
2023-03-05T05:01:08.463Z,3.22
2023-03-05T05:03:35.205Z,3.95
2023-03-05T05:06:02.080Z,4.32
2023-03-05T05:08:29.312Z,3.30
2023-03-05T05:10:58.466Z,4.03
2023-03-05T05:13:25.610Z,4.72
2023-03-05T05:15:52.475Z,4.32
2023-03-05T05:18:19.635Z,3.45
2023-03-05T05:20:46.584Z,4.13
2023-03-05T05:23:13.254Z,3.80
2023-03-05T05:25:39.982Z,3.47
2023-03-05T05:28:06.768Z,3.50
2023-03-05T05:30:33.407Z,2.60
2023-03-05T05:33:00.012Z,4.57
2023-03-05T05:35:26.716Z,4.18
2023-03-05T05:37:53.303Z,3.15
2023-03-05T05:40:20.029Z,4.50
2023-03-05T05:42:46.623Z,3.50
2023-03-05T05:45:13.573Z,4.00
2023-03-05T05:47:40.304Z,4.45
2023-03-05T05:50:07.847Z,4.13
2023-03-05T05:52:34.549Z,3.90
2023-03-05T05:55:01.235Z,3.47
2023-03-05T05:57:27.927Z,3.35
2023-03-05T05:59:54.588Z,5.43
2023-03-05T06:02:21.229Z,3.42
2023-03-05T06:04:47.917Z,3.38
2023-03-05T06:07:14.613Z,4.22
2023-03-05T06:09:41.245Z,5.13
2023-03-05T06:12:08.007Z,4.05
2023-03-05T06:14:35.042Z,4.70
2023-03-05T06:17:01.703Z,4.05
2023-03-05T06:19:28.394Z,3.88
2023-03-05T06:21:55.072Z,3.60
2023-03-05T06:24:22.343Z,4.13
2023-03-05T06:26:49.202Z,4.25
2023-03-05T06:29:16.728Z,3.85
2023-03-05T06:31:43.388Z,3.58
2023-03-05T06:34:10.370Z,4.25
2023-03-05T06:36:40.405Z,3.63
2023-03-05T06:39:07.533Z,3.75
2023-03-05T06:41:34.128Z,3.17
2023-03-05T06:44:05.198Z,2.95
2023-03-05T06:46:39.304Z,3.90
2023-03-05T06:49:07.000Z,3.97
2023-03-05T06:51:36.980Z,3.70
2023-03-05T06:54:07.104Z,3.83
2023-03-05T06:56:36.871Z,2.80
2023-03-05T06:59:03.889Z,2.95
2023-03-05T07:01:30.562Z,4.18
2023-03-05T07:04:02.861Z,3.65
2023-03-05T07:06:33.652Z,2.65
2023-03-05T07:09:01.396Z,3.13
2023-03-05T07:11:28.349Z,4.75
2023-03-05T07:13:54.995Z,2.80
2023-03-05T07:16:24.681Z,2.90
2023-03-05T07:18:52.207Z,4.20
2023-03-05T07:21:21.931Z,3.13
2023-03-05T07:23:48.897Z,2.67
2023-03-05T07:26:16.213Z,2.85
2023-03-05T07:28:43.299Z,2.97
2023-03-05T07:31:21.311Z,2.75
2023-03-05T07:33:49.441Z,2.47
2023-03-05T07:38:43.454Z,2.90
2023-03-05T07:41:13.407Z,3.00
2023-03-05T07:43:40.883Z,2.42
2023-03-05T07:46:10.111Z,2.55
2023-03-05T07:48:37.681Z,2.60
2023-03-05T07:51:15.897Z,3.90
2023-03-05T07:53:43.979Z,3.28
2023-03-05T07:56:10.925Z,4.07
2023-03-05T07:58:37.830Z,4.40
2023-03-05T08:01:04.702Z,5.00
2023-03-05T08:03:31.382Z,4.57
2023-03-05T08:05:58.017Z,4.55
2023-03-05T08:08:24.671Z,3.85
2023-03-05T08:10:51.388Z,4.90
2023-03-05T08:13:18.040Z,4.53
2023-03-05T08:15:46.179Z,5.47
2023-03-05T08:18:13.777Z,4.63
2023-03-05T08:23:06.827Z,4.68
2023-03-05T08:25:33.441Z,4.93
2023-03-05T08:28:00.359Z,5.72
2023-03-05T08:30:27.561Z,4.97
2023-03-05T08:32:54.680Z,5.78
2023-03-05T08:35:22.009Z,5.65
2023-03-05T08:37:49.022Z,4.85
2023-03-05T08:40:17.976Z,5.25
2023-03-05T08:42:44.820Z,5.22
2023-03-05T08:45:12.334Z,6.90
2023-03-05T08:47:39.337Z,5.28
2023-03-05T08:50:06.660Z,4.88
2023-03-05T08:54:59.917Z,5.28
2023-03-05T08:57:26.513Z,6.30
2023-03-05T08:59:53.133Z,5.82
2023-03-05T09:02:19.743Z,5.57
2023-03-05T09:04:46.293Z,5.68
2023-03-05T09:07:13.135Z,5.43
2023-03-05T09:09:40.282Z,6.22
2023-03-05T09:14:33.546Z,6.00
2023-03-05T09:17:00.116Z,5.53
2023-03-05T09:19:27.605Z,6.18
2023-03-05T09:21:56.873Z,6.03
2023-03-05T09:24:23.710Z,5.72
2023-03-05T09:26:50.337Z,6.25
2023-03-05T09:29:17.198Z,7.20
2023-03-05T09:31:44.132Z,6.25
2023-03-05T09:34:11.723Z,6.55
2023-03-05T09:36:38.698Z,8.10
2023-03-05T09:39:07.040Z,6.22
2023-03-05T09:42:10.455Z,6.45
2023-03-05T09:44:58.862Z,5.97
2023-03-05T09:47:44.287Z,5.80
2023-03-05T09:50:33.494Z,7.47
2023-03-05T09:53:13.634Z,6.03
2023-03-05T09:55:45.237Z,7.35
2023-03-05T09:58:16.671Z,6.40
2023-03-05T10:00:50.240Z,6.60
2023-03-05T10:03:27.360Z,6.63
2023-03-05T10:06:23.920Z,5.95
2023-03-05T10:09:09.388Z,7.25
2023-03-05T10:11:49.365Z,7.93
2023-03-05T10:14:40.457Z,6.80
2023-03-05T10:19:49.188Z,6.85
2023-03-05T10:25:35.352Z,6.75
2023-03-05T10:28:09.439Z,6.72
2023-03-05T10:31:14.888Z,7.97
2023-03-05T10:33:59.734Z,7.25
2023-03-05T10:36:57.875Z,7.20
2023-03-05T10:39:40.127Z,6.75
2023-03-05T10:42:30.780Z,7.10
2023-03-05T10:45:01.065Z,7.97
2023-03-05T10:47:27.947Z,7.03
2023-03-05T10:49:57.385Z,7.80
2023-03-05T10:52:36.984Z,7.45
2023-03-05T10:55:15.661Z,6.88
2023-03-05T10:57:42.488Z,7.35
2023-03-05T11:02:57.884Z,8.18
2023-03-05T11:05:36.918Z,7.72
2023-03-05T11:08:24.958Z,8.63
2023-03-05T11:11:04.921Z,7.25
2023-03-05T11:13:33.835Z,8.25
2023-03-05T11:16:02.935Z,7.80
2023-03-05T11:18:37.659Z,8.95
2023-03-05T11:21:13.428Z,7.38
2023-03-05T11:23:40.064Z,7.70
2023-03-05T11:26:12.949Z,8.07
2023-03-05T11:28:55.192Z,7.90
2023-03-05T11:31:27.741Z,7.45
2023-03-05T11:33:57.463Z,7.57
2023-03-05T11:36:26.891Z,6.97
2023-03-05T11:39:00.157Z,8.68
2023-03-05T11:41:34.712Z,6.70
2023-03-05T11:44:04.106Z,7.43
2023-03-05T11:46:40.949Z,6.20
2023-03-05T11:49:11.589Z,7.68
2023-03-05T11:51:48.537Z,7.50
2023-03-05T11:54:21.272Z,7.43
2023-03-05T11:56:47.934Z,6.82
2023-03-05T11:59:27.250Z,6.13
2023-03-05T12:01:56.523Z,7.10
2023-03-05T12:04:25.043Z,5.38
2023-03-05T12:06:57.269Z,6.35
2023-03-05T12:09:41.058Z,6.45
2023-03-05T12:12:30.924Z,6.13
2023-03-05T12:15:15.982Z,5.80
2023-03-05T12:18:04.462Z,5.72
2023-03-05T12:21:16.670Z,4.90
2023-03-05T12:23:49.494Z,5.63
2023-03-05T12:26:16.331Z,5.97
2023-03-05T12:28:42.986Z,5.18
2023-03-05T12:31:09.609Z,5.60
2023-03-05T12:33:43.869Z,4.68
2023-03-05T12:36:19.546Z,5.90
2023-03-05T12:38:51.965Z,6.35
2023-03-05T12:41:26.929Z,4.97
2023-03-05T12:44:07.027Z,5.22
2023-03-05T12:46:37.479Z,5.13
2023-03-05T12:49:20.154Z,5.18
2023-03-05T12:51:48.900Z,5.57
2023-03-05T12:54:22.633Z,5.95
2023-03-05T12:56:50.272Z,5.00
2023-03-05T12:59:21.734Z,5.03
2023-03-05T13:02:00.543Z,4.38
2023-03-05T13:04:30.780Z,4.40
2023-03-05T13:07:04.158Z,5.25
2023-03-05T13:09:34.854Z,5.05
2023-03-05T13:12:03.921Z,6.82
2023-03-05T13:14:41.851Z,5.13
2023-03-05T13:17:30.340Z,4.82
2023-03-05T13:19:58.067Z,5.40
2023-03-05T13:22:24.716Z,6.22
2023-03-05T13:25:23.896Z,5.75
2023-03-05T13:27:50.508Z,6.70
2023-03-05T13:30:26.908Z,5.15
2023-03-05T13:33:00.379Z,5.70
2023-03-05T13:35:27.059Z,5.88
2023-03-05T13:40:20.301Z,5.15
2023-03-05T13:42:46.930Z,5.10
2023-03-05T13:45:28.063Z,5.18
2023-03-05T13:48:03.009Z,6.45
2023-03-05T13:50:33.115Z,5.45
2023-03-05T13:53:18.124Z,5.15
2023-03-05T13:55:46.485Z,6.80
2023-03-05T13:58:52.324Z,6.47
2023-03-05T14:01:40.300Z,5.30
2023-03-05T14:04:12.652Z,5.03
2023-03-05T14:07:01.435Z,5.25
2023-03-05T14:09:31.571Z,4.95
2023-03-05T14:12:04.764Z,5.45
2023-03-05T14:14:36.452Z,5.60
2023-03-05T14:17:23.163Z,4.70
2023-03-05T14:19:50.419Z,4.70
2023-03-05T14:22:34.147Z,5.68
2023-03-05T14:25:00.977Z,4.80
2023-03-05T14:29:59.772Z,4.70
2023-03-05T14:32:33.445Z,5.38
2023-03-05T14:35:02.283Z,4.35
2023-03-05T14:37:42.108Z,5.75
2023-03-05T14:40:12.172Z,4.07
2023-03-05T14:42:41.705Z,4.60
2023-03-05T14:45:17.533Z,4.38
2023-03-05T14:47:44.343Z,4.07
2023-03-05T14:50:19.995Z,4.03
2023-03-05T14:52:48.656Z,7.53
2023-03-05T14:55:21.837Z,4.00
2023-03-05T14:57:51.386Z,3.97
2023-03-05T15:00:24.905Z,3.78
2023-03-05T15:02:52.049Z,3.45
2023-03-05T15:05:19.463Z,4.07
2023-03-05T15:07:47.022Z,3.30
2023-03-05T15:10:16.646Z,4.05
2023-03-05T15:12:44.176Z,3.70
2023-03-05T15:15:14.021Z,4.47
2023-03-05T15:17:43.669Z,3.03
2023-03-05T15:20:19.894Z,3.42
2023-03-05T15:22:46.637Z,3.58
2023-03-05T15:25:13.451Z,3.03
2023-03-05T15:27:40.075Z,3.40
2023-03-05T15:30:14.193Z,2.95
2023-03-05T15:32:40.937Z,3.30
2023-03-05T15:35:09.349Z,4.03
2023-03-05T15:37:35.900Z,3.42
2023-03-05T15:40:02.668Z,3.03
2023-03-05T15:42:29.247Z,2.70
2023-03-05T15:44:55.826Z,3.47
2023-03-05T15:47:22.584Z,3.63
2023-03-05T15:49:49.213Z,2.42
2023-03-05T15:52:16.882Z,3.95
2023-03-05T15:54:43.547Z,3.28
2023-03-05T15:57:12.615Z,3.65
2023-03-05T15:59:39.330Z,4.18
2023-03-05T16:02:06.724Z,3.90
2023-03-05T16:04:33.379Z,3.95
2023-03-05T16:07:03.584Z,3.80
2023-03-05T16:09:34.558Z,3.22
2023-03-05T16:12:02.672Z,3.33
2023-03-05T16:14:30.324Z,3.47
2023-03-05T16:16:59.211Z,3.05
2023-03-05T16:19:27.514Z,2.60
2023-03-05T16:21:54.137Z,3.53
2023-03-05T16:24:20.771Z,3.90
2023-03-05T16:26:47.600Z,3.85
2023-03-05T16:29:14.388Z,3.28
2023-03-05T16:31:43.099Z,3.58
2023-03-05T16:34:10.315Z,3.72
2023-03-05T16:36:37.129Z,3.78
2023-03-05T16:39:04.757Z,3.90
2023-03-05T16:41:31.926Z,3.22
2023-03-05T16:43:59.318Z,4.00
2023-03-05T16:46:28.589Z,4.05
2023-03-05T16:48:55.574Z,3.67
2023-03-05T16:51:22.765Z,4.07
2023-03-05T16:53:49.670Z,5.00
2023-03-05T16:56:16.740Z,4.07
2023-03-05T16:58:43.388Z,4.10
2023-03-05T17:01:17.852Z,3.55
2023-03-05T17:03:44.890Z,4.60
2023-03-05T17:06:21.320Z,4.00
2023-03-05T17:08:49.904Z,4.05
2023-03-05T17:11:17.234Z,4.50
2023-03-05T17:13:43.967Z,4.75
2023-03-05T17:16:12.703Z,4.18
2023-03-05T17:18:39.587Z,4.35
2023-03-05T17:21:07.649Z,3.78
2023-03-05T17:23:36.191Z,3.70
2023-03-05T17:26:09.192Z,4.40
2023-03-05T17:28:36.416Z,4.28
2023-03-05T17:31:03.922Z,3.60
2023-03-05T17:33:32.039Z,4.78
2023-03-05T17:35:59.240Z,5.05
2023-03-05T17:38:26.827Z,4.70
2023-03-05T17:43:20.276Z,4.97
2023-03-05T17:45:47.490Z,4.20
2023-03-05T17:48:15.935Z,3.88
2023-03-05T17:50:44.841Z,4.95
2023-03-05T17:53:11.563Z,3.70
2023-03-05T17:55:39.264Z,4.35
2023-03-05T18:00:32.973Z,2.25
2023-03-05T18:02:59.851Z,4.57
2023-03-05T18:05:27.209Z,4.25
2023-03-05T18:07:55.438Z,3.13
2023-03-05T18:10:24.635Z,3.67
2023-03-05T18:12:51.904Z,3.70
2023-03-05T18:15:20.566Z,3.25
2023-03-05T18:17:47.599Z,4.15
2023-03-05T18:20:25.260Z,4.63
2023-03-05T18:22:52.112Z,3.83
2023-03-05T18:25:18.997Z,4.03
2023-03-05T18:27:45.679Z,5.07
2023-03-05T18:30:12.584Z,3.40
2023-03-05T18:32:39.316Z,4.78
2023-03-05T18:35:06.283Z,3.97
2023-03-05T18:37:32.997Z,4.10
2023-03-05T18:39:59.598Z,3.92
2023-03-05T18:42:26.241Z,4.05
2023-03-05T18:44:52.928Z,4.38
2023-03-05T18:47:19.597Z,5.20
2023-03-05T18:49:46.165Z,3.63
2023-03-05T18:52:12.775Z,4.30
2023-03-05T18:54:40.203Z,2.60
2023-03-05T18:57:06.819Z,4.22
2023-03-05T18:59:33.520Z,4.35
2023-03-05T19:02:00.301Z,4.20
2023-03-05T19:04:27.484Z,4.25
2023-03-05T19:06:54.106Z,4.05
2023-03-05T19:09:30.957Z,4.38
2023-03-05T19:11:57.693Z,4.38
2023-03-05T19:14:28.927Z,4.30
2023-03-05T19:16:57.026Z,4.88
2023-03-05T19:19:24.595Z,3.85
2023-03-05T19:21:59.491Z,3.80
2023-03-05T19:24:28.630Z,4.50
2023-03-05T19:26:56.732Z,4.28
2023-03-05T19:29:24.672Z,3.17
2023-03-05T19:31:52.757Z,3.90
2023-03-05T19:34:20.741Z,4.28
2023-03-05T19:36:48.086Z,4.22
2023-03-05T19:39:15.552Z,4.32
2023-03-05T19:41:42.450Z,5.18
2023-03-05T19:44:09.067Z,4.20
2023-03-05T19:46:35.769Z,3.22
2023-03-05T19:49:02.634Z,3.22
2023-03-05T19:51:29.377Z,4.18
2023-03-05T19:53:56.066Z,3.65
2023-03-05T19:56:22.785Z,4.40
2023-03-05T19:58:49.592Z,3.47
2023-03-05T20:01:18.047Z,4.18
2023-03-05T20:03:47.132Z,3.72
2023-03-05T20:06:14.316Z,4.18
2023-03-05T20:08:41.492Z,4.30
2023-03-05T20:11:11.308Z,4.40
2023-03-05T20:13:39.088Z,4.05
2023-03-05T20:16:17.199Z,4.55
2023-03-05T20:18:45.322Z,3.60
2023-03-05T20:21:21.411Z,3.72
2023-03-05T20:23:52.767Z,5.90
2023-03-05T20:26:21.217Z,3.97
2023-03-05T20:28:49.902Z,4.00
2023-03-05T20:31:21.761Z,4.07
2023-03-05T20:33:49.437Z,4.32
2023-03-05T20:36:16.944Z,4.78
2023-03-05T20:38:45.724Z,3.65
2023-03-05T20:41:16.441Z,4.78
2023-03-05T20:43:46.542Z,4.50
2023-03-05T20:46:28.957Z,4.85
2023-03-05T20:48:59.164Z,5.38
2023-03-05T20:51:28.148Z,5.22
2023-03-05T20:53:58.729Z,4.53
2023-03-05T20:56:29.619Z,5.32
2023-03-05T20:58:58.548Z,4.07
2023-03-05T21:01:27.107Z,4.93
2023-03-05T21:03:57.343Z,5.40
2023-03-05T21:06:26.524Z,5.00
2023-03-05T21:08:53.613Z,4.50
2023-03-05T21:11:20.858Z,5.43
2023-03-05T21:13:48.569Z,5.63
2023-03-05T21:18:44.689Z,4.07
2023-03-05T21:21:11.683Z,5.38
2023-03-05T21:23:38.533Z,4.40
2023-03-05T21:26:05.731Z,5.13
2023-03-05T21:28:33.230Z,5.82
2023-03-05T21:31:06.836Z,4.35
2023-03-05T21:33:33.630Z,4.40
2023-03-05T21:36:00.411Z,4.97
2023-03-05T21:38:29.797Z,4.88
2023-03-05T21:40:58.930Z,5.07
2023-03-05T21:43:26.776Z,4.50
2023-03-05T21:48:22.740Z,5.38
2023-03-05T21:50:49.843Z,4.47
2023-03-05T21:53:18.076Z,3.75
2023-03-05T21:56:03.205Z,5.43
2023-03-05T21:58:34.466Z,4.35
2023-03-05T22:01:01.730Z,6.80
2023-03-05T22:03:29.080Z,4.68
2023-03-05T22:05:56.172Z,5.75
2023-03-05T22:08:23.480Z,4.07
2023-03-05T22:10:51.030Z,5.50
2023-03-05T22:13:19.988Z,5.75
2023-03-05T22:15:52.552Z,5.28
2023-03-05T22:18:22.214Z,4.30
2023-03-05T22:20:49.432Z,4.93
2023-03-05T22:23:17.133Z,4.78
2023-03-05T22:25:44.311Z,4.65
2023-03-05T22:28:12.486Z,5.88
2023-03-05T22:30:43.948Z,5.20
2023-03-05T22:33:11.151Z,4.70
2023-03-05T22:35:41.919Z,5.68
2023-03-05T22:38:12.515Z,5.22
2023-03-05T22:40:44.882Z,4.00
2023-03-05T22:43:12.353Z,5.28
2023-03-05T22:45:39.524Z,5.05
2023-03-05T22:48:07.230Z,5.00
2023-03-05T22:50:33.800Z,5.72
2023-03-05T22:53:00.570Z,6.35
2023-03-05T22:55:27.170Z,5.55
2023-03-05T22:57:53.922Z,6.00
2023-03-05T23:00:23.734Z,5.38
2023-03-05T23:02:51.246Z,4.85
2023-03-05T23:05:18.452Z,6.57
2023-03-05T23:07:45.744Z,5.68
2023-03-05T23:10:19.449Z,5.53
2023-03-05T23:12:50.008Z,6.55
2023-03-05T23:15:20.881Z,5.85
2023-03-05T23:17:47.610Z,4.20
2023-03-05T23:20:16.839Z,5.18
2023-03-05T23:22:45.106Z,5.90
2023-03-05T23:25:12.968Z,4.90
2023-03-05T23:27:40.353Z,5.35
2023-03-05T23:30:30.957Z,4.45
2023-03-05T23:33:00.277Z,5.90
2023-03-05T23:35:30.436Z,5.40
2023-03-05T23:37:59.522Z,7.20
2023-03-05T23:40:36.094Z,6.70
2023-03-05T23:43:03.643Z,4.60
2023-03-05T23:45:30.905Z,5.18
2023-03-05T23:47:58.088Z,5.13
2023-03-05T23:50:28.548Z,5.95
2023-03-05T23:52:55.372Z,5.95
2023-03-05T23:55:29.723Z,6.28
2023-03-05T23:57:56.784Z,5.30
